sensor_id;sensor_type;location;lat;lon;timestamp;pressure;altitude;pressure_sealevel;temperature;humidity
11621;BME280;5866;49.094;11.900;2023-03-14T00:01:09;94614.97;;;11.29;100.00
11621;BME280;5866;49.094;11.900;2023-03-14T00:03:37;94613.56;;;10.94;100.00
11621;BME280;5866;49.094;11.900;2023-03-14T00:06:06;94604.00;;;10.99;100.00
11621;BME280;5866;49.094;11.900;2023-03-14T00:08:34;94582.34;;;11.29;100.00
11621;BME280;5866;49.094;11.900;2023-03-14T00:11:06;94554.66;;;11.75;100.00
11621;BME280;5866;49.094;11.900;2023-03-14T00:13:35;94533.25;;;11.64;100.00
11621;BME280;5866;49.094;11.900;2023-03-14T00:16:04;94504.97;;;11.89;100.00
11621;BME280;5866;49.094;11.900;2023-03-14T00:18:33;94505.69;;;12.03;100.00
11621;BME280;5866;49.094;11.900;2023-03-14T00:21:02;94525.84;;;11.85;100.00
11621;BME280;5866;49.094;11.900;2023-03-14T00:23:31;94541.81;;;11.59;100.00
11621;BME280;5866;49.094;11.900;2023-03-14T00:25:59;94573.38;;;11.03;100.00
11621;BME280;5866;49.094;11.900;2023-03-14T00:28:27;94587.84;;;10.62;100.00
11621;BME280;5866;49.094;11.900;2023-03-14T00:30:56;94591.47;;;10.34;100.00
11621;BME280;5866;49.094;11.900;2023-03-14T00:33:24;94604.25;;;10.24;100.00
11621;BME280;5866;49.094;11.900;2023-03-14T00:35:55;94606.75;;;10.32;100.00
11621;BME280;5866;49.094;11.900;2023-03-14T00:38:23;94628.22;;;10.64;100.00
11621;BME280;5866;49.094;11.900;2023-03-14T00:40:50;94674.53;;;10.68;100.00
11621;BME280;5866;49.094;11.900;2023-03-14T00:43:18;94678.53;;;10.44;100.00
11621;BME280;5866;49.094;11.900;2023-03-14T00:45:47;94684.16;;;10.21;100.00
11621;BME280;5866;49.094;11.900;2023-03-14T00:48:17;94677.88;;;10.01;100.00
11621;BME280;5866;49.094;11.900;2023-03-14T00:50:44;94690.38;;;10.07;100.00
11621;BME280;5866;49.094;11.900;2023-03-14T00:53:12;94703.69;;;10.20;100.00
11621;BME280;5866;49.094;11.900;2023-03-14T00:55:41;94706.06;;;10.09;100.00
11621;BME280;5866;49.094;11.900;2023-03-14T00:58:09;94707.75;;;10.16;100.00
11621;BME280;5866;49.094;11.900;2023-03-14T01:00:37;94707.63;;;9.97;100.00
11621;BME280;5866;49.094;11.900;2023-03-14T01:03:05;94694.56;;;9.95;100.00
11621;BME280;5866;49.094;11.900;2023-03-14T01:05:34;94676.50;;;9.71;100.00
11621;BME280;5866;49.094;11.900;2023-03-14T01:08:02;94663.28;;;9.71;100.00
11621;BME280;5866;49.094;11.900;2023-03-14T01:10:30;94660.59;;;9.65;100.00
11621;BME280;5866;49.094;11.900;2023-03-14T01:12:58;94644.28;;;9.61;100.00
11621;BME280;5866;49.094;11.900;2023-03-14T01:15:25;94654.47;;;9.64;100.00
11621;BME280;5866;49.094;11.900;2023-03-14T01:17:53;94651.25;;;9.69;100.00
11621;BME280;5866;49.094;11.900;2023-03-14T01:20:21;94658.94;;;9.63;100.00
11621;BME280;5866;49.094;11.900;2023-03-14T01:22:49;94651.50;;;9.74;100.00
11621;BME280;5866;49.094;11.900;2023-03-14T01:25:18;94637.56;;;9.58;100.00
11621;BME280;5866;49.094;11.900;2023-03-14T01:27:45;94638.91;;;9.48;100.00
11621;BME280;5866;49.094;11.900;2023-03-14T01:30:13;94634.22;;;9.50;100.00
11621;BME280;5866;49.094;11.900;2023-03-14T01:32:41;94637.66;;;9.44;100.00
11621;BME280;5866;49.094;11.900;2023-03-14T01:35:09;94624.81;;;9.41;100.00
11621;BME280;5866;49.094;11.900;2023-03-14T01:37:36;94621.16;;;9.42;100.00
11621;BME280;5866;49.094;11.900;2023-03-14T01:40:06;94635.59;;;9.39;100.00
11621;BME280;5866;49.094;11.900;2023-03-14T01:42:33;94630.91;;;9.41;100.00
11621;BME280;5866;49.094;11.900;2023-03-14T01:45:01;94629.09;;;9.42;100.00
11621;BME280;5866;49.094;11.900;2023-03-14T01:47:29;94631.78;;;9.48;100.00
11621;BME280;5866;49.094;11.900;2023-03-14T01:49:59;94621.53;;;9.73;100.00
11621;BME280;5866;49.094;11.900;2023-03-14T01:52:31;94620.81;;;9.92;100.00
11621;BME280;5866;49.094;11.900;2023-03-14T01:55:05;94594.38;;;9.99;100.00
11621;BME280;5866;49.094;11.900;2023-03-14T01:57:36;94591.66;;;9.86;100.00
11621;BME280;5866;49.094;11.900;2023-03-14T02:00:14;94576.13;;;10.23;100.00
11621;BME280;5866;49.094;11.900;2023-03-14T02:02:44;94566.41;;;10.57;100.00
11621;BME280;5866;49.094;11.900;2023-03-14T02:05:16;94562.34;;;10.61;100.00
11621;BME280;5866;49.094;11.900;2023-03-14T02:07:47;94542.28;;;10.12;100.00
11621;BME280;5866;49.094;11.900;2023-03-14T02:10:20;94525.88;;;9.89;100.00
11621;BME280;5866;49.094;11.900;2023-03-14T02:12:48;94521.78;;;9.80;100.00
11621;BME280;5866;49.094;11.900;2023-03-14T02:15:16;94520.19;;;9.92;100.00
11621;BME280;5866;49.094;11.900;2023-03-14T02:17:45;94518.13;;;9.88;100.00
11621;BME280;5866;49.094;11.900;2023-03-14T02:20:25;94516.50;;;9.93;100.00
11621;BME280;5866;49.094;11.900;2023-03-14T02:22:55;94505.56;;;10.09;100.00
11621;BME280;5866;49.094;11.900;2023-03-14T02:25:31;94473.59;;;10.11;100.00
11621;BME280;5866;49.094;11.900;2023-03-14T02:28:04;94501.28;;;10.08;100.00
11621;BME280;5866;49.094;11.900;2023-03-14T02:30:32;94456.91;;;10.17;100.00
11621;BME280;5866;49.094;11.900;2023-03-14T02:33:04;94491.25;;;9.97;100.00
11621;BME280;5866;49.094;11.900;2023-03-14T02:35:34;94525.06;;;9.82;100.00
11621;BME280;5866;49.094;11.900;2023-03-14T02:38:07;94535.41;;;9.30;100.00
11621;BME280;5866;49.094;11.900;2023-03-14T02:40:37;94523.81;;;9.85;100.00
11621;BME280;5866;49.094;11.900;2023-03-14T02:43:06;94484.44;;;10.49;100.00
11621;BME280;5866;49.094;11.900;2023-03-14T02:45:37;94537.25;;;9.83;100.00
11621;BME280;5866;49.094;11.900;2023-03-14T02:48:09;94542.31;;;9.31;100.00
11621;BME280;5866;49.094;11.900;2023-03-14T02:50:38;94540.94;;;9.82;100.00
11621;BME280;5866;49.094;11.900;2023-03-14T02:53:06;94526.09;;;9.94;100.00
11621;BME280;5866;49.094;11.900;2023-03-14T02:55:33;94526.91;;;10.01;100.00
11621;BME280;5866;49.094;11.900;2023-03-14T02:58:01;94529.09;;;10.58;100.00
11621;BME280;5866;49.094;11.900;2023-03-14T03:00:30;94541.13;;;10.54;100.00
11621;BME280;5866;49.094;11.900;2023-03-14T03:02:57;94544.72;;;10.20;100.00
11621;BME280;5866;49.094;11.900;2023-03-14T03:05:25;94551.59;;;10.08;100.00
11621;BME280;5866;49.094;11.900;2023-03-14T03:07:52;94549.84;;;10.15;100.00
11621;BME280;5866;49.094;11.900;2023-03-14T03:10:20;94550.91;;;9.87;100.00
11621;BME280;5866;49.094;11.900;2023-03-14T03:12:47;94568.19;;;9.70;100.00
11621;BME280;5866;49.094;11.900;2023-03-14T03:15:15;94562.44;;;9.66;100.00
11621;BME280;5866;49.094;11.900;2023-03-14T03:17:44;94564.03;;;9.54;100.00
11621;BME280;5866;49.094;11.900;2023-03-14T03:20:11;94559.88;;;9.45;100.00
11621;BME280;5866;49.094;11.900;2023-03-14T03:22:39;94566.84;;;9.46;100.00
11621;BME280;5866;49.094;11.900;2023-03-14T03:25:08;94561.16;;;9.55;100.00
11621;BME280;5866;49.094;11.900;2023-03-14T03:27:36;94572.16;;;9.52;100.00
11621;BME280;5866;49.094;11.900;2023-03-14T03:30:05;94568.94;;;9.57;100.00
11621;BME280;5866;49.094;11.900;2023-03-14T03:32:33;94570.63;;;9.71;100.00
11621;BME280;5866;49.094;11.900;2023-03-14T03:35:04;94559.38;;;9.63;100.00
11621;BME280;5866;49.094;11.900;2023-03-14T03:37:32;94561.13;;;9.49;100.00
11621;BME280;5866;49.094;11.900;2023-03-14T03:40:00;94565.19;;;9.45;100.00
11621;BME280;5866;49.094;11.900;2023-03-14T03:42:30;94555.03;;;9.48;100.00
11621;BME280;5866;49.094;11.900;2023-03-14T03:44:58;94544.69;;;9.60;100.00
11621;BME280;5866;49.094;11.900;2023-03-14T03:47:26;94533.25;;;9.53;100.00
11621;BME280;5866;49.094;11.900;2023-03-14T03:49:54;94537.22;;;9.70;100.00
11621;BME280;5866;49.094;11.900;2023-03-14T03:52:22;94525.31;;;10.00;100.00
11621;BME280;5866;49.094;11.900;2023-03-14T03:54:50;94509.69;;;10.25;100.00
11621;BME280;5866;49.094;11.900;2023-03-14T03:57:17;94520.47;;;9.56;100.00
11621;BME280;5866;49.094;11.900;2023-03-14T03:59:45;94529.28;;;9.77;100.00
11621;BME280;5866;49.094;11.900;2023-03-14T04:02:12;94526.91;;;9.88;100.00
11621;BME280;5866;49.094;11.900;2023-03-14T04:04:40;94515.72;;;9.93;100.00
11621;BME280;5866;49.094;11.900;2023-03-14T04:07:07;94504.72;;;10.02;100.00
11621;BME280;5866;49.094;11.900;2023-03-14T04:09:38;94514.91;;;9.99;100.00
11621;BME280;5866;49.094;11.900;2023-03-14T04:12:06;94508.00;;;10.04;100.00
11621;BME280;5866;49.094;11.900;2023-03-14T04:14:33;94489.34;;;10.38;100.00
11621;BME280;5866;49.094;11.900;2023-03-14T04:17:01;94499.50;;;10.15;100.00
11621;BME280;5866;49.094;11.900;2023-03-14T04:19:28;94498.41;;;10.03;100.00
11621;BME280;5866;49.094;11.900;2023-03-14T04:21:55;94492.75;;;10.13;100.00
11621;BME280;5866;49.094;11.900;2023-03-14T04:24:23;94490.44;;;9.84;100.00
11621;BME280;5866;49.094;11.900;2023-03-14T04:26:52;94494.25;;;9.68;100.00
11621;BME280;5866;49.094;11.900;2023-03-14T04:29:20;94481.44;;;9.78;100.00
11621;BME280;5866;49.094;11.900;2023-03-14T04:31:47;94483.28;;;9.91;100.00
11621;BME280;5866;49.094;11.900;2023-03-14T04:34:15;94479.00;;;9.83;100.00
11621;BME280;5866;49.094;11.900;2023-03-14T04:36:42;94478.22;;;9.89;100.00
11621;BME280;5866;49.094;11.900;2023-03-14T04:39:10;94479.94;;;9.49;100.00
11621;BME280;5866;49.094;11.900;2023-03-14T04:41:37;94468.94;;;10.26;100.00
11621;BME280;5866;49.094;11.900;2023-03-14T04:44:06;94472.59;;;10.18;100.00
11621;BME280;5866;49.094;11.900;2023-03-14T04:46:33;94464.06;;;10.43;100.00
11621;BME280;5866;49.094;11.900;2023-03-14T04:49:01;94457.94;;;10.35;100.00
11621;BME280;5866;49.094;11.900;2023-03-14T04:51:28;94450.94;;;11.00;100.00
11621;BME280;5866;49.094;11.900;2023-03-14T04:53:56;94454.66;;;10.33;100.00
11621;BME280;5866;49.094;11.900;2023-03-14T04:56:23;94460.78;;;10.41;100.00
11621;BME280;5866;49.094;11.900;2023-03-14T04:58:51;94467.66;;;10.02;100.00
11621;BME280;5866;49.094;11.900;2023-03-14T05:01:20;94462.41;;;10.28;100.00
11621;BME280;5866;49.094;11.900;2023-03-14T05:03:48;94466.69;;;10.29;100.00
11621;BME280;5866;49.094;11.900;2023-03-14T05:06:15;94485.81;;;10.05;100.00
11621;BME280;5866;49.094;11.900;2023-03-14T05:08:43;94473.41;;;10.65;100.00
11621;BME280;5866;49.094;11.900;2023-03-14T05:11:11;94462.59;;;10.86;100.00
11621;BME280;5866;49.094;11.900;2023-03-14T05:13:39;94464.47;;;10.66;100.00
11621;BME280;5866;49.094;11.900;2023-03-14T05:16:08;94453.84;;;10.13;100.00
11621;BME280;5866;49.094;11.900;2023-03-14T05:18:37;94452.13;;;9.80;100.00
11621;BME280;5866;49.094;11.900;2023-03-14T05:21:05;94462.28;;;9.76;100.00
11621;BME280;5866;49.094;11.900;2023-03-14T05:23:33;94475.28;;;9.58;100.00
11621;BME280;5866;49.094;11.900;2023-03-14T05:26:00;94463.41;;;9.41;100.00
11621;BME280;5866;49.094;11.900;2023-03-14T05:28:28;94458.53;;;9.51;100.00
11621;BME280;5866;49.094;11.900;2023-03-14T05:30:55;94451.94;;;9.21;100.00
11621;BME280;5866;49.094;11.900;2023-03-14T05:33:23;94456.34;;;9.54;100.00
11621;BME280;5866;49.094;11.900;2023-03-14T05:35:52;94450.00;;;9.42;100.00
11621;BME280;5866;49.094;11.900;2023-03-14T05:38:19;94443.13;;;9.74;100.00
11621;BME280;5866;49.094;11.900;2023-03-14T05:40:48;94440.94;;;9.78;100.00
11621;BME280;5866;49.094;11.900;2023-03-14T05:43:15;94427.25;;;9.61;100.00
11621;BME280;5866;49.094;11.900;2023-03-14T05:45:43;94430.78;;;9.94;100.00
11621;BME280;5866;49.094;11.900;2023-03-14T05:48:11;94426.47;;;9.93;100.00
11621;BME280;5866;49.094;11.900;2023-03-14T05:50:38;94437.06;;;9.74;100.00
11621;BME280;5866;49.094;11.900;2023-03-14T05:53:07;94423.19;;;9.78;100.00
11621;BME280;5866;49.094;11.900;2023-03-14T05:55:35;94425.28;;;10.02;100.00
11621;BME280;5866;49.094;11.900;2023-03-14T05:58:02;94429.97;;;10.00;100.00
11621;BME280;5866;49.094;11.900;2023-03-14T06:00:30;94433.25;;;10.28;100.00
11621;BME280;5866;49.094;11.900;2023-03-14T06:02:57;94447.31;;;10.22;100.00
11621;BME280;5866;49.094;11.900;2023-03-14T06:05:25;94440.00;;;10.37;100.00
11621;BME280;5866;49.094;11.900;2023-03-14T06:07:52;94428.97;;;10.14;100.00
11621;BME280;5866;49.094;11.900;2023-03-14T06:10:21;94423.22;;;9.91;100.00
11621;BME280;5866;49.094;11.900;2023-03-14T06:12:48;94427.75;;;10.17;100.00
11621;BME280;5866;49.094;11.900;2023-03-14T06:15:16;94434.28;;;10.21;100.00
11621;BME280;5866;49.094;11.900;2023-03-14T06:17:43;94424.50;;;10.41;100.00
11621;BME280;5866;49.094;11.900;2023-03-14T06:20:11;94424.09;;;10.18;100.00
11621;BME280;5866;49.094;11.900;2023-03-14T06:22:39;94425.66;;;9.99;100.00
11621;BME280;5866;49.094;11.900;2023-03-14T06:25:08;94433.06;;;10.10;100.00
11621;BME280;5866;49.094;11.900;2023-03-14T06:27:37;94427.28;;;9.87;100.00
11621;BME280;5866;49.094;11.900;2023-03-14T06:30:06;94436.25;;;9.99;100.00
11621;BME280;5866;49.094;11.900;2023-03-14T06:32:34;94433.78;;;9.85;100.00
11621;BME280;5866;49.094;11.900;2023-03-14T06:35:01;94417.50;;;9.81;100.00
11621;BME280;5866;49.094;11.900;2023-03-14T06:37:29;94426.53;;;10.13;100.00
11621;BME280;5866;49.094;11.900;2023-03-14T06:39:57;94420.19;;;10.01;100.00
11621;BME280;5866;49.094;11.900;2023-03-14T06:42:24;94428.91;;;9.82;100.00
11621;BME280;5866;49.094;11.900;2023-03-14T06:44:53;94427.88;;;9.83;100.00
11621;BME280;5866;49.094;11.900;2023-03-14T06:47:21;94430.28;;;9.58;100.00
11621;BME280;5866;49.094;11.900;2023-03-14T06:49:48;94430.06;;;9.59;100.00
11621;BME280;5866;49.094;11.900;2023-03-14T06:52:17;94436.44;;;9.78;100.00
11621;BME280;5866;49.094;11.900;2023-03-14T06:54:44;94432.19;;;9.84;100.00
11621;BME280;5866;49.094;11.900;2023-03-14T06:57:11;94432.22;;;9.97;100.00
11621;BME280;5866;49.094;11.900;2023-03-14T06:59:39;94429.53;;;9.90;100.00
11621;BME280;5866;49.094;11.900;2023-03-14T07:02:10;94435.44;;;9.86;100.00
11621;BME280;5866;49.094;11.900;2023-03-14T07:04:37;94427.94;;;10.02;100.00
11621;BME280;5866;49.094;11.900;2023-03-14T07:07:05;94425.91;;;10.57;100.00
11621;BME280;5866;49.094;11.900;2023-03-14T07:09:33;94408.16;;;10.05;100.00
11621;BME280;5866;49.094;11.900;2023-03-14T07:12:01;94399.63;;;10.09;100.00
11621;BME280;5866;49.094;11.900;2023-03-14T07:14:29;94410.84;;;10.24;100.00
11621;BME280;5866;49.094;11.900;2023-03-14T07:16:57;94420.84;;;10.35;100.00
11621;BME280;5866;49.094;11.900;2023-03-14T07:19:25;94420.00;;;10.35;100.00
11621;BME280;5866;49.094;11.900;2023-03-14T07:21:53;94405.31;;;10.52;100.00
11621;BME280;5866;49.094;11.900;2023-03-14T07:24:21;94424.03;;;10.83;100.00
11621;BME280;5866;49.094;11.900;2023-03-14T07:26:48;94414.31;;;10.58;100.00
11621;BME280;5866;49.094;11.900;2023-03-14T07:29:16;94425.72;;;10.52;100.00
11621;BME280;5866;49.094;11.900;2023-03-14T07:31:43;94435.84;;;10.94;100.00
11621;BME280;5866;49.094;11.900;2023-03-14T07:34:10;94432.44;;;10.74;100.00
11621;BME280;5866;49.094;11.900;2023-03-14T07:36:39;94431.00;;;10.78;100.00
11621;BME280;5866;49.094;11.900;2023-03-14T07:39:07;94434.81;;;11.01;100.00
11621;BME280;5866;49.094;11.900;2023-03-14T07:41:35;94434.47;;;10.72;100.00
11621;BME280;5866;49.094;11.900;2023-03-14T07:44:02;94445.72;;;10.34;100.00
11621;BME280;5866;49.094;11.900;2023-03-14T07:46:30;94464.06;;;10.43;100.00
11621;BME280;5866;49.094;11.900;2023-03-14T07:48:57;94464.88;;;10.36;100.00
11621;BME280;5866;49.094;11.900;2023-03-14T07:51:25;94465.66;;;10.44;100.00
11621;BME280;5866;49.094;11.900;2023-03-14T07:53:54;94475.06;;;10.66;100.00
11621;BME280;5866;49.094;11.900;2023-03-14T07:56:21;94480.56;;;10.77;100.00
11621;BME280;5866;49.094;11.900;2023-03-14T07:58:49;94479.53;;;10.72;100.00
11621;BME280;5866;49.094;11.900;2023-03-14T08:01:16;94481.38;;;10.65;100.00
11621;BME280;5866;49.094;11.900;2023-03-14T08:03:44;94482.34;;;11.03;100.00
11621;BME280;5866;49.094;11.900;2023-03-14T08:06:11;94479.72;;;10.77;100.00
11621;BME280;5866;49.094;11.900;2023-03-14T08:08:39;94467.72;;;10.61;100.00
11621;BME280;5866;49.094;11.900;2023-03-14T08:11:08;94464.22;;;10.87;100.00
11621;BME280;5866;49.094;11.900;2023-03-14T08:13:36;94458.63;;;11.21;100.00
11621;BME280;5866;49.094;11.900;2023-03-14T08:16:04;94457.38;;;11.30;100.00
11621;BME280;5866;49.094;11.900;2023-03-14T08:18:32;94466.94;;;11.38;100.00
11621;BME280;5866;49.094;11.900;2023-03-14T08:20:59;94460.69;;;11.06;100.00
11621;BME280;5866;49.094;11.900;2023-03-14T08:23:27;94444.31;;;11.35;100.00
11621;BME280;5866;49.094;11.900;2023-03-14T08:25:54;94444.34;;;11.22;100.00
11621;BME280;5866;49.094;11.900;2023-03-14T08:28:23;94447.03;;;11.09;100.00
11621;BME280;5866;49.094;11.900;2023-03-14T08:30:57;94433.25;;;11.38;100.00
11621;BME280;5866;49.094;11.900;2023-03-14T08:33:25;94441.09;;;11.20;100.00
11621;BME280;5866;49.094;11.900;2023-03-14T08:35:53;94432.84;;;11.41;100.00
11621;BME280;5866;49.094;11.900;2023-03-14T08:38:21;94424.78;;;11.98;100.00
11621;BME280;5866;49.094;11.900;2023-03-14T08:40:48;94419.88;;;12.02;100.00
11621;BME280;5866;49.094;11.900;2023-03-14T08:43:16;94422.59;;;11.51;100.00
11621;BME280;5866;49.094;11.900;2023-03-14T08:45:45;94410.88;;;12.03;100.00
11621;BME280;5866;49.094;11.900;2023-03-14T08:48:12;94412.63;;;12.65;100.00
11621;BME280;5866;49.094;11.900;2023-03-14T08:50:40;94424.16;;;13.20;99.04
11621;BME280;5866;49.094;11.900;2023-03-14T08:53:07;94425.13;;;13.43;94.24
11621;BME280;5866;49.094;11.900;2023-03-14T08:55:35;94417.34;;;13.90;90.88
11621;BME280;5866;49.094;11.900;2023-03-14T08:58:03;94419.28;;;14.42;87.52
11621;BME280;5866;49.094;11.900;2023-03-14T09:00:30;94417.91;;;14.51;85.19
11621;BME280;5866;49.094;11.900;2023-03-14T09:02:59;94407.91;;;14.58;82.93
11621;BME280;5866;49.094;11.900;2023-03-14T09:05:26;94405.59;;;14.09;84.82
11621;BME280;5866;49.094;11.900;2023-03-14T09:07:54;94411.34;;;13.94;86.85
11621;BME280;5866;49.094;11.900;2023-03-14T09:10:21;94404.44;;;14.46;84.86
11621;BME280;5866;49.094;11.900;2023-03-14T09:12:49;94398.56;;;14.26;84.60
11621;BME280;5866;49.094;11.900;2023-03-14T09:15:17;94399.06;;;13.93;85.20
11621;BME280;5866;49.094;11.900;2023-03-14T09:17:44;94406.47;;;13.91;85.63
11621;BME280;5866;49.094;11.900;2023-03-14T09:20:13;94408.38;;;14.44;82.71
11621;BME280;5866;49.094;11.900;2023-03-14T09:22:41;94410.09;;;13.67;84.29
11621;BME280;5866;49.094;11.900;2023-03-14T09:25:09;94408.28;;;13.79;88.06
11621;BME280;5866;49.094;11.900;2023-03-14T09:27:36;94410.00;;;13.74;87.54
11621;BME280;5866;49.094;11.900;2023-03-14T09:30:05;94415.69;;;14.07;88.48
11621;BME280;5866;49.094;11.900;2023-03-14T09:32:32;94407.22;;;14.51;85.62
11621;BME280;5866;49.094;11.900;2023-03-14T09:35:00;94407.91;;;14.58;80.46
11621;BME280;5866;49.094;11.900;2023-03-14T09:37:29;94414.44;;;14.97;80.54
11621;BME280;5866;49.094;11.900;2023-03-14T09:39:57;94422.78;;;15.00;78.03
11621;BME280;5866;49.094;11.900;2023-03-14T09:42:26;94413.22;;;14.35;81.73
11621;BME280;5866;49.094;11.900;2023-03-14T09:44:56;94418.25;;;14.43;82.08
11621;BME280;5866;49.094;11.900;2023-03-14T09:47:25;94412.94;;;14.78;78.48
11621;BME280;5866;49.094;11.900;2023-03-14T09:49:53;94410.94;;;14.73;78.40
11621;BME280;5866;49.094;11.900;2023-03-14T09:52:23;94413.94;;;15.35;72.52
11621;BME280;5866;49.094;11.900;2023-03-14T09:54:54;94415.59;;;14.89;74.62
11621;BME280;5866;49.094;11.900;2023-03-14T09:57:25;94410.63;;;15.67;76.38
11621;BME280;5866;49.094;11.900;2023-03-14T09:59:55;94403.75;;;16.44;69.91
11621;BME280;5866;49.094;11.900;2023-03-14T10:02:28;94403.53;;;15.73;71.73
11621;BME280;5866;49.094;11.900;2023-03-14T10:04:59;94403.13;;;15.30;74.65
11621;BME280;5866;49.094;11.900;2023-03-14T10:07:35;94406.97;;;14.41;80.28
11621;BME280;5866;49.094;11.900;2023-03-14T10:10:10;94402.34;;;14.07;81.11
11621;BME280;5866;49.094;11.900;2023-03-14T10:12:37;94400.75;;;15.05;76.98
11621;BME280;5866;49.094;11.900;2023-03-14T10:15:08;94386.81;;;15.03;74.60
11621;BME280;5866;49.094;11.900;2023-03-14T10:17:41;94385.19;;;14.90;76.68
11621;BME280;5866;49.094;11.900;2023-03-14T10:20:27;94370.13;;;14.84;74.52
11621;BME280;5866;49.094;11.900;2023-03-14T10:23:01;94369.44;;;15.80;73.71
11621;BME280;5866;49.094;11.900;2023-03-14T10:25:32;94369.72;;;16.23;67.74
11621;BME280;5866;49.094;11.900;2023-03-14T10:28:00;94364.16;;;16.30;65.16
11621;BME280;5866;49.094;11.900;2023-03-14T10:30:39;94357.84;;;16.19;64.57
11621;BME280;5866;49.094;11.900;2023-03-14T10:33:15;94361.84;;;15.88;65.38
11621;BME280;5866;49.094;11.900;2023-03-14T10:35:46;94363.22;;;15.11;69.68
11621;BME280;5866;49.094;11.900;2023-03-14T10:38:19;94368.41;;;15.30;71.97
11621;BME280;5866;49.094;11.900;2023-03-14T10:40:50;94370.78;;;15.66;70.79
11621;BME280;5866;49.094;11.900;2023-03-14T10:43:22;94361.66;;;15.39;69.86
11621;BME280;5866;49.094;11.900;2023-03-14T10:45:55;94361.41;;;15.80;69.64
11621;BME280;5866;49.094;11.900;2023-03-14T10:48:30;94369.88;;;16.33;64.26
11621;BME280;5866;49.094;11.900;2023-03-14T10:51:03;94369.84;;;16.00;64.11
11621;BME280;5866;49.094;11.900;2023-03-14T10:53:41;94366.41;;;16.49;63.69
11621;BME280;5866;49.094;11.900;2023-03-14T10:56:13;94355.69;;;16.83;64.40
11621;BME280;5866;49.094;11.900;2023-03-14T10:58:42;94369.94;;;17.26;59.57
11621;BME280;5866;49.094;11.900;2023-03-14T11:01:26;94359.81;;;16.74;62.13
11621;BME280;5866;49.094;11.900;2023-03-14T11:03:57;94362.13;;;16.04;64.54
11621;BME280;5866;49.094;11.900;2023-03-14T11:06:34;94374.56;;;15.30;68.93
11621;BME280;5866;49.094;11.900;2023-03-14T11:09:10;94381.72;;;14.55;70.82
11621;BME280;5866;49.094;11.900;2023-03-14T11:11:45;94368.25;;;14.39;72.49
11621;BME280;5866;49.094;11.900;2023-03-14T11:14:20;94385.09;;;14.21;72.87
11621;BME280;5866;49.094;11.900;2023-03-14T11:16:54;94366.38;;;13.86;74.05
11621;BME280;5866;49.094;11.900;2023-03-14T11:19:32;94367.94;;;14.17;75.56
11621;BME280;5866;49.094;11.900;2023-03-14T11:22:08;94374.88;;;14.71;73.29
11621;BME280;5866;49.094;11.900;2023-03-14T11:24:49;94384.16;;;14.80;69.53
11621;BME280;5866;49.094;11.900;2023-03-14T11:27:22;94360.44;;;14.25;71.60
11621;BME280;5866;49.094;11.900;2023-03-14T11:29:54;94375.69;;;14.07;77.42
11621;BME280;5866;49.094;11.900;2023-03-14T11:32:34;94362.69;;;14.63;71.89
11621;BME280;5866;49.094;11.900;2023-03-14T11:35:12;94371.50;;;14.52;73.65
11621;BME280;5866;49.094;11.900;2023-03-14T11:37:46;94364.75;;;14.38;74.42
11621;BME280;5866;49.094;11.900;2023-03-14T11:40:20;94363.97;;;14.08;73.51
11621;BME280;5866;49.094;11.900;2023-03-14T11:42:54;94356.13;;;13.72;79.55
11621;BME280;5866;49.094;11.900;2023-03-14T11:45:27;94350.53;;;14.03;78.70
11621;BME280;5866;49.094;11.900;2023-03-14T11:48:11;94347.03;;;14.32;74.91
11621;BME280;5866;49.094;11.900;2023-03-14T11:50:42;94343.19;;;14.86;70.11
11621;BME280;5866;49.094;11.900;2023-03-14T11:53:14;94336.94;;;14.34;71.14
11621;BME280;5866;49.094;11.900;2023-03-14T11:55:43;94333.00;;;14.48;70.61
11621;BME280;5866;49.094;11.900;2023-03-14T11:58:16;94332.28;;;14.64;69.76
11621;BME280;5866;49.094;11.900;2023-03-14T12:00:47;94332.53;;;14.51;74.48
11621;BME280;5866;49.094;11.900;2023-03-14T12:03:23;94328.13;;;14.45;72.56
11621;BME280;5866;49.094;11.900;2023-03-14T12:05:58;94332.88;;;14.55;72.18
11621;BME280;5866;49.094;11.900;2023-03-14T12:08:37;94329.41;;;14.66;72.78
11621;BME280;5866;49.094;11.900;2023-03-14T12:11:11;94331.59;;;14.69;71.95
11621;BME280;5866;49.094;11.900;2023-03-14T12:13:46;94339.34;;;14.93;71.15
11621;BME280;5866;49.094;11.900;2023-03-14T12:16:38;94325.91;;;13.78;76.68
11621;BME280;5866;49.094;11.900;2023-03-14T12:19:31;94322.16;;;13.37;83.60
11621;BME280;5866;49.094;11.900;2023-03-14T12:22:05;94342.44;;;12.84;93.41
11621;BME280;5866;49.094;11.900;2023-03-14T12:24:37;94344.06;;;12.67;100.00
11621;BME280;5866;49.094;11.900;2023-03-14T12:27:09;94335.59;;;12.09;100.00
11621;BME280;5866;49.094;11.900;2023-03-14T12:30:00;94359.84;;;11.57;100.00
11621;BME280;5866;49.094;11.900;2023-03-14T12:32:30;94354.66;;;10.93;100.00
11621;BME280;5866;49.094;11.900;2023-03-14T12:35:07;94348.56;;;10.86;100.00
11621;BME280;5866;49.094;11.900;2023-03-14T12:37:57;94326.00;;;12.51;100.00
11621;BME280;5866;49.094;11.900;2023-03-14T12:40:30;94319.41;;;14.38;100.00
11621;BME280;5866;49.094;11.900;2023-03-14T12:43:00;94316.13;;;14.24;100.00
11621;BME280;5866;49.094;11.900;2023-03-14T12:45:29;94319.25;;;14.10;100.00
11621;BME280;5866;49.094;11.900;2023-03-14T12:48:11;94311.84;;;14.23;100.00
11621;BME280;5866;49.094;11.900;2023-03-14T12:50:43;94309.44;;;14.33;100.00
11621;BME280;5866;49.094;11.900;2023-03-14T12:53:37;94315.66;;;14.04;100.00
11621;BME280;5866;49.094;11.900;2023-03-14T12:56:15;94316.63;;;14.33;100.00
11621;BME280;5866;49.094;11.900;2023-03-14T12:58:56;94307.94;;;13.73;100.00
11621;BME280;5866;49.094;11.900;2023-03-14T13:01:26;94306.13;;;13.55;100.00
11621;BME280;5866;49.094;11.900;2023-03-14T13:03:55;94307.13;;;13.73;100.00
11621;BME280;5866;49.094;11.900;2023-03-14T13:06:50;94300.91;;;14.02;100.00
11621;BME280;5866;49.094;11.900;2023-03-14T13:09:50;94301.56;;;14.62;98.80